CDT,Max TemperatureF,Mean TemperatureF,Min TemperatureF,Max Dew PointF,MeanDew PointF,Min DewpointF,Max Humidity, Mean Humidity, Min Humidity, Max Sea Level PressureIn, Mean Sea Level PressureIn, Min Sea Level PressureIn, Max VisibilityMiles, Mean VisibilityMiles, Min VisibilityMiles, Max Wind SpeedMPH, Mean Wind SpeedMPH, Max Gust SpeedMPH,PrecipitationIn, CloudCover, Events, WindDirDegrees
2012-4-1,87,75,64,70,67,63,100,84,51,29.85,29.77,29.65,10,6,1,15,5,18,0.00,3,,148
2012-4-2,86,73,60,72,65,58,94,78,51,29.73,29.62,29.52,10,8,4,15,10,22,0.01,4,Rain-Thunderstorm,140
2012-4-3,84,78,71,72,67,46,94,73,41,29.79,29.71,29.60,10,6,4,13,8,,0.00,6,Rain,128
2012-4-4,87,70,55,54,49,41,78,51,22,29.87,29.79,29.71,10,10,10,8,4,,0.00,1,,17
2012-4-5,91,76,60,68,62,50,100,77,24,29.88,29.81,29.72,10,6,0,10,3,17,0.00,3,Fog,229
2012-4-6,82,73,64,67,63,55,87,67,54,30.01,29.92,29.84,10,9,6,14,9,18,0.00,1,,103
2012-4-7,84,74,66,68,65,62,100,78,49,30.16,30.05,29.98,10,7,3,13,8,18,0.00,4,,130
2012-4-8,84,72,63,64,61,55,97,71,39,30.26,30.18,30.11,10,10,6,13,4,,0.00,2,Rain,88
2012-4-9,82,71,60,64,60,58,97,72,44,30.17,30.12,30.04,10,9,6,10,3,,0.00,1,Rain,137
2012-4-10,82,71,60,63,60,58,96,71,45,30.14,30.07,29.99,10,9,6,13,3,20,0.00,1,,134
2012-4-11,86,73,62,66,63,60,94,76,43,30.10,30.04,29.91,10,8,3,17,6,26,0.00,3,,116
2012-4-12,84,76,69,70,67,65,100,81,56,30.04,29.97,29.87,10,9,2,18,9,24,0.01,6,Rain,136
2012-4-13,82,76,69,70,68,66,96,85,62,29.96,29.90,29.81,10,8,2,18,9,28,0.00,8,Rain,134
2012-4-14,82,78,73,70,69,68,87,76,65,29.87,29.80,29.68,10,8,5,21,15,34,0.00,8,Rain,146
2012-4-15,82,76,66,70,63,46,85,66,34,29.90,29.75,29.65,10,9,7,18,13,28,0.00,6,,133
2012-4-16,73,68,62,54,49,43,72,53,36,30.11,30.00,29.90,10,10,10,16,6,26,0.00,6,Rain-Thunderstorm,40
2012-4-17,84,72,59,57,50,40,87,52,23,30.20,30.13,30.07,10,10,10,9,6,,0.00,0,,48
2012-4-18,84,72,61,64,57,47,100,70,29,30.20,30.12,29.96,10,8,2,10,4,,0.00,5,,111
2012-4-19,87,70,54,63,56,52,93,63,35,30.00,29.89,29.75,10,10,10,13,5,21,0.00,0,,167
2012-4-20,79,70,63,64,59,46,94,74,37,30.00,29.83,29.70,10,10,7,18,6,29,0.00,2,Rain-Thunderstorm,24
2012-4-21,84,68,55,46,43,40,64,43,22,30.07,30.01,29.94,10,10,10,13,7,20,0.00,0,,2
2012-4-22,90,69,50,52,47,42,89,48,20,30.12,30.04,29.98,10,10,10,7,1,,0.00,0,,136
2012-4-23,82,72,63,52,45,40,59,41,25,30.22,30.12,30.04,10,10,7,13,6,20,0.00,0,,67
2012-4-24,88,70,54,62,56,49,93,62,32,30.08,29.99,29.87,10,10,10,16,4,21,0.00,0,,162
2012-4-25,95,80,66,69,64,56,88,67,28,29.94,29.87,29.76,10,10,10,14,7,23,0.00,4,,166
2012-4-26,97,79,63,68,63,54,93,63,25,29.87,29.82,29.75,10,10,10,17,6,24,0.00,0,,159
2012-4-27,93,78,62,68,63,54,94,68,28,29.86,29.79,29.71,10,9,6,17,8,24,0.00,1,,151
2012-4-28,90,78,66,70,65,60,93,68,40,29.86,29.80,29.75,10,9,4,23,12,29,0.00,4,,141
2012-4-29,86,79,72,70,66,60,88,71,43,29.93,29.86,29.80,10,9,7,18,13,24,0.00,6,,134
2012-4-30,90,82,73,72,69,62,94,75,40,29.98,29.92,29.83,10,9,8,23,9,28,0.00,5,Rain,140